Time;durP1;ratioP1;P1;durP2;ratioP2;P2;SDS_P1;SDS_P2;PMS_P1;PMS_P2;Temp;Humidity;BMP_temperature;BMP_pressure;BME280_temperature;BME280_humidity;BME280_pressure;Samples;Min_cycle;Max_cycle;Signal;HPM_P1;HPM_P2
2022/12/24 00:00:42;;;;;;;49.20;23.13;;;6.40;99.90;;;;;;6189958;23;20178;-83
2022/12/24 00:03:09;;;;;;;51.27;22.83;;;6.30;99.90;;;;;;6189854;23;20172;-83
2022/12/24 00:05:37;;;;;;;53.03;22.93;;;6.30;99.90;;;;;;6189746;23;20236;-84
2022/12/24 00:08:04;;;;;;;52.57;23.57;;;6.20;99.90;;;;;;6189832;23;20166;-83
2022/12/24 00:10:32;;;;;;;52.10;22.80;;;6.20;99.90;;;;;;6189759;23;20606;-83
2022/12/24 00:13:02;;;;;;;55.17;22.60;;;6.20;99.90;;;;;;6216703;23;20583;-83
2022/12/24 00:15:29;;;;;;;49.60;21.83;;;6.20;99.90;;;;;;6189916;23;20171;-83
2022/12/24 00:17:59;;;;;;;51.83;22.33;;;6.20;99.90;;;;;;6189848;23;20254;-83
2022/12/24 00:20:27;;;;;;;55.13;22.93;;;6.20;99.90;;;;;;6216536;23;20494;-83
2022/12/24 00:22:54;;;;;;;54.43;22.97;;;6.30;99.90;;;;;;6190140;23;20638;-83
2022/12/24 00:25:22;;;;;;;54.57;23.87;;;6.30;99.90;;;;;;6216061;23;20217;-83
2022/12/24 00:27:49;;;;;;;56.50;23.87;;;6.30;99.90;;;;;;6216319;23;20176;-83
2022/12/24 00:30:17;;;;;;;52.30;22.90;;;6.40;99.90;;;;;;6216338;23;20235;-83
2022/12/24 00:32:57;;;;;;;50.60;22.77;;;6.40;99.90;;;;;;6188820;23;20199;-83
2022/12/24 00:35:42;;;;;;;52.60;22.63;;;6.50;99.90;;;;;;6216528;23;20171;-83
2022/12/24 00:38:12;;;;;;;52.93;21.57;;;6.60;99.90;;;;;;6165804;23;20171;-83
2022/12/24 00:40:40;;;;;;;52.60;23.40;;;6.80;99.90;;;;;;6216228;23;20174;-83
2022/12/24 00:43:07;;;;;;;54.17;23.27;;;6.90;99.90;;;;;;6189408;23;20284;-83
2022/12/24 00:45:35;;;;;;;49.57;22.27;;;6.90;99.90;;;;;;6189351;23;20165;-83
2022/12/24 00:48:04;;;;;;;48.70;22.70;;;6.80;99.90;;;;;;6216331;23;20248;-84
2022/12/24 00:50:34;;;;;;;50.57;22.47;;;6.80;99.90;;;;;;6190005;23;20170;-83
2022/12/24 00:53:01;;;;;;;52.97;22.27;;;6.80;99.90;;;;;;6189772;23;20186;-83
2022/12/24 00:55:32;;;;;;;46.97;21.40;;;6.60;99.90;;;;;;6215978;23;20185;-83
2022/12/24 00:58:01;;;;;;;47.70;21.07;;;6.60;99.90;;;;;;6189313;23;20228;-83
2022/12/24 01:00:28;;;;;;;48.30;21.33;;;6.70;99.90;;;;;;6189115;23;20201;-83
2022/12/24 01:03:03;;;;;;;51.53;22.20;;;6.80;99.90;;;;;;6216476;23;20193;-83
2022/12/24 01:05:34;;;;;;;48.37;21.60;;;6.90;99.90;;;;;;6215821;23;20243;-83
2022/12/24 01:08:07;;;;;;;48.83;22.00;;;6.90;99.90;;;;;;6216151;23;20166;-83
2022/12/24 01:10:37;;;;;;;49.03;21.73;;;7.00;99.90;;;;;;6214730;23;20567;-82
2022/12/24 01:13:10;;;;;;;48.93;22.13;;;7.00;99.90;;;;;;6216654;23;20166;-82
2022/12/24 01:15:59;;;;;;;46.20;21.20;;;6.90;99.90;;;;;;6216501;23;20162;-83
2022/12/24 01:18:46;;;;;;;44.93;19.87;;;6.90;99.90;;;;;;6216699;23;20492;-84
2022/12/24 01:21:26;;;;;;;47.47;21.57;;;6.90;99.90;;;;;;6190449;23;20189;-83
2022/12/24 01:23:58;;;;;;;48.37;21.17;;;6.80;99.90;;;;;;6216871;23;20492;-84
2022/12/24 01:26:28;;;;;;;48.23;21.60;;;6.80;99.90;;;;;;6217556;23;20190;-84
2022/12/24 01:28:56;;;;;;;48.93;21.63;;;6.80;99.90;;;;;;6216532;23;20611;-84
2022/12/24 01:31:36;;;;;;;45.87;21.47;;;6.80;99.90;;;;;;6215767;23;20173;-83
2022/12/24 01:34:03;;;;;;;48.37;22.40;;;6.70;99.90;;;;;;6216535;23;20487;-84
2022/12/24 01:36:30;;;;;;;47.07;21.43;;;6.70;99.90;;;;;;6189619;23;20180;-83
2022/12/24 01:39:13;;;;;;;46.13;21.47;;;6.70;99.90;;;;;;6216450;23;20171;-83
2022/12/24 01:44:43;;;;;;;51.23;22.77;;;6.80;99.90;;;;;;6183433;23;20170;-84
2022/12/24 01:47:28;;;;;;;49.50;21.97;;;6.90;99.90;;;;;;6216432;23;20674;-83
2022/12/24 01:50:22;;;;;;;47.80;21.83;;;6.90;99.90;;;;;;6190387;23;20167;-84
2022/12/24 01:53:01;;;;;;;47.93;21.80;;;6.80;99.90;;;;;;6189413;23;20176;-83
2022/12/24 01:55:40;;;;;;;50.13;21.87;;;6.80;99.90;;;;;;6216468;23;20183;-84
2022/12/24 01:58:25;;;;;;;48.03;21.57;;;6.70;99.90;;;;;;6216018;23;20193;-84
2022/12/24 02:00:56;;;;;;;42.70;20.60;;;6.60;99.90;;;;;;6190075;23;20172;-84
2022/12/24 02:03:29;;;;;;;46.70;21.27;;;6.70;99.90;;;;;;6190871;23;20223;-83
2022/12/24 02:05:58;;;;;;;53.97;22.20;;;6.80;99.90;;;;;;6189644;23;20482;-86
2022/12/24 02:08:38;;;;;;;48.40;22.10;;;6.80;99.90;;;;;;6216788;23;20495;-83
2022/12/24 02:11:14;;;;;;;47.57;21.53;;;6.80;99.90;;;;;;6192380;23;20153;-83
2022/12/24 02:13:57;;;;;;;51.53;22.43;;;6.90;99.90;;;;;;6216228;23;20246;-83
2022/12/24 02:16:43;;;;;;;47.90;22.03;;;7.00;99.90;;;;;;6165591;23;20179;-84
2022/12/24 02:19:34;;;;;;;49.00;21.40;;;7.00;99.90;;;;;;6189808;23;20165;-84
2022/12/24 02:23:06;;;;;;;;;;;;;;;;;;;;;
2022/12/24 02:25:55;;;;;;;50.07;20.27;;;7.00;99.90;;;;;;6076174;23;20198;-85
2022/12/24 02:29:37;;;;;;;50.67;21.77;;;6.90;99.90;;;;;;6126592;23;20267;-83
2022/12/24 02:32:30;;;;;;;51.00;21.37;;;6.90;99.90;;;;;;6126398;23;20250;-83
2022/12/24 02:35:40;;;;;;;50.27;21.07;;;7.00;99.90;;;;;;6101977;23;20168;-86
2022/12/24 02:42:13;;;;;;;54.63;20.17;;;6.80;99.90;;;;;;5955143;24;20182;-84
2022/12/24 02:45:39;;;;;;;56.80;21.23;;;6.70;99.90;;;;;;5899803;24;20725;-84
2022/12/24 02:48:23;;;;;;;50.13;19.97;;;6.80;99.90;;;;;;5799511;24;20176;-84
2022/12/24 02:51:14;;;;;;;53.00;21.60;;;6.70;99.90;;;;;;5820588;24;20154;-85
2022/12/24 02:54:14;;;;;;;50.07;20.57;;;6.80;99.90;;;;;;5820152;24;20177;-83
2022/12/24 02:57:24;;;;;;;53.03;20.27;;;6.80;99.90;;;;;;5863961;24;20166;-84
2022/12/24 03:00:16;;;;;;;52.13;21.80;;;6.70;99.90;;;;;;5899042;24;20209;-85
2022/12/24 03:03:12;;;;;;;53.00;21.50;;;6.70;99.90;;;;;;5877188;24;20207;-85
2022/12/24 03:05:50;;;;;;;51.93;20.87;;;6.70;99.90;;;;;;5899694;24;20188;-83
2022/12/24 03:08:34;;;;;;;52.30;21.07;;;6.60;99.90;;;;;;5877411;24;20166;-84
2022/12/24 03:11:15;;;;;;;51.47;21.03;;;6.60;99.90;;;;;;5904790;24;20175;-83
2022/12/24 03:13:45;;;;;;;47.87;20.73;;;6.60;99.90;;;;;;5954321;24;20187;-85
2022/12/24 03:16:22;;;;;;;50.83;21.17;;;6.60;99.90;;;;;;5953981;24;20569;-86
2022/12/24 03:18:53;;;;;;;58.97;21.37;;;6.60;99.90;;;;;;5909964;24;20183;-85
2022/12/24 03:21:25;;;;;;;50.73;21.50;;;6.50;99.90;;;;;;5988014;23;20173;-83
2022/12/24 03:23:53;;;;;;;48.53;20.47;;;6.60;99.90;;;;;;6014935;23;20199;-83
2022/12/24 03:26:21;;;;;;;50.30;20.30;;;6.50;99.90;;;;;;6154691;23;20201;-83
2022/12/24 03:28:51;;;;;;;47.60;20.90;;;6.50;99.90;;;;;;6155523;23;20685;-84
2022/12/24 03:31:19;;;;;;;50.17;19.87;;;6.40;99.90;;;;;;6155401;23;20222;-84
2022/12/24 03:33:49;;;;;;;49.13;20.00;;;6.40;99.90;;;;;;6155190;23;20587;-82
2022/12/24 03:36:17;;;;;;;45.97;19.50;;;6.40;99.90;;;;;;6156984;23;20243;-83
2022/12/24 03:38:44;;;;;;;42.80;19.43;;;6.40;99.90;;;;;;6157093;23;20251;-83
2022/12/24 03:41:11;;;;;;;41.90;18.43;;;6.40;99.90;;;;;;6156142;23;20175;-83
2022/12/24 03:43:38;;;;;;;43.53;19.57;;;6.50;99.90;;;;;;6155716;23;20201;-83
2022/12/24 03:46:06;;;;;;;41.87;18.67;;;6.50;99.90;;;;;;6157014;23;20232;-84
2022/12/24 03:48:35;;;;;;;43.77;18.80;;;6.50;99.90;;;;;;6155757;23;20177;-83
2022/12/24 03:51:03;;;;;;;41.07;18.50;;;6.40;99.90;;;;;;6155504;23;20168;-86
2022/12/24 03:53:31;;;;;;;45.07;18.43;;;6.40;99.90;;;;;;6180288;23;20714;-85
2022/12/24 03:55:58;;;;;;;42.30;18.83;;;6.40;99.90;;;;;;6155474;23;20175;-83
2022/12/24 03:58:25;;;;;;;38.90;17.47;;;6.40;99.90;;;;;;6163878;23;20213;-86
2022/12/24 04:00:55;;;;;;;40.73;18.60;;;6.40;99.90;;;;;;6190162;23;20203;-82
2022/12/24 04:03:22;;;;;;;38.50;17.43;;;6.30;99.90;;;;;;6190139;23;20183;-86
2022/12/24 04:06:13;;;;;;;39.27;18.37;;;6.30;99.90;;;;;;6190417;23;20196;-86
2022/12/24 04:08:41;;;;;;;37.70;17.10;;;6.30;99.90;;;;;;6217504;23;20480;-85
2022/12/24 04:11:10;;;;;;;37.63;16.70;;;6.30;99.90;;;;;;6216713;23;20198;-85
2022/12/24 04:13:37;;;;;;;35.50;16.20;;;6.20;99.90;;;;;;6165782;23;20173;-84
2022/12/24 04:16:08;;;;;;;42.93;18.30;;;6.20;99.90;;;;;;6189812;23;20177;-84
2022/12/24 04:18:36;;;;;;;32.53;15.33;;;6.20;99.90;;;;;;6166171;23;20539;-84
2022/12/24 04:21:06;;;;;;;36.63;16.37;;;6.20;99.90;;;;;;6190095;23;20179;-84
2022/12/24 04:23:35;;;;;;;35.63;16.40;;;6.20;99.90;;;;;;6190272;23;20595;-84
2022/12/24 04:26:04;;;;;;;37.13;16.87;;;6.20;99.90;;;;;;6189562;23;20200;-84
2022/12/24 04:28:34;;;;;;;36.83;16.30;;;6.20;99.90;;;;;;6189968;23;20258;-86
2022/12/24 04:31:05;;;;;;;32.67;16.43;;;6.10;99.90;;;;;;6190119;23;20167;-85
2022/12/24 04:33:32;;;;;;;39.53;17.00;;;6.10;99.90;;;;;;6189999;23;20526;-84
2022/12/24 04:36:01;;;;;;;33.47;16.57;;;6.20;99.90;;;;;;6216404;23;20597;-84
2022/12/24 04:38:29;;;;;;;35.33;16.80;;;6.10;99.90;;;;;;6189804;23;20548;-85
2022/12/24 04:41:02;;;;;;;34.47;16.47;;;6.10;99.90;;;;;;6189966;23;20170;-84
2022/12/24 04:43:30;;;;;;;34.33;16.40;;;6.10;99.90;;;;;;6216713;23;20203;-84
2022/12/24 04:46:16;;;;;;;36.30;16.20;;;6.10;99.90;;;;;;6189640;23;20561;-86
2022/12/24 04:48:45;;;;;;;30.70;16.17;;;6.10;99.90;;;;;;6216386;23;20182;-86
2022/12/24 04:51:14;;;;;;;29.33;14.97;;;6.10;99.90;;;;;;6189635;23;20174;-85
2022/12/24 04:53:44;;;;;;;30.83;15.97;;;6.10;99.90;;;;;;6190268;23;20597;-85
2022/12/24 04:56:12;;;;;;;33.13;15.97;;;6.10;99.90;;;;;;6189863;23;20178;-85
2022/12/24 04:58:40;;;;;;;31.40;16.00;;;6.10;99.90;;;;;;6216200;23;20193;-85
2022/12/24 05:01:14;;;;;;;31.97;15.73;;;6.00;99.90;;;;;;6215981;23;20227;-84
2022/12/24 05:03:42;;;;;;;31.10;16.13;;;6.00;99.90;;;;;;6216200;23;20273;-84
2022/12/24 05:06:18;;;;;;;32.17;15.73;;;6.00;99.90;;;;;;6189542;23;20207;-85
2022/12/24 05:08:46;;;;;;;29.90;15.20;;;6.00;99.90;;;;;;6216092;23;20147;-83
2022/12/24 05:11:14;;;;;;;30.90;16.13;;;6.00;99.90;;;;;;6216188;23;20157;-85
2022/12/24 05:13:43;;;;;;;31.13;15.90;;;6.00;99.90;;;;;;6216652;23;20167;-85
2022/12/24 05:16:15;;;;;;;28.87;15.53;;;6.10;99.90;;;;;;6189210;23;20194;-86
2022/12/24 05:18:43;;;;;;;29.13;14.97;;;6.10;99.90;;;;;;6215922;23;20167;-83
2022/12/24 05:21:18;;;;;;;27.43;14.70;;;6.10;99.90;;;;;;6189923;23;20165;-84
2022/12/24 05:26:48;;;;;;;31.67;15.67;;;6.00;99.90;;;;;;6216103;23;20640;-84
2022/12/24 05:29:15;;;;;;;30.63;14.83;;;6.00;99.90;;;;;;6216319;23;20174;-85
2022/12/24 05:31:43;;;;;;;28.80;15.17;;;5.90;99.90;;;;;;6165099;23;20168;-85
2022/12/24 05:34:12;;;;;;;34.97;15.40;;;5.90;99.90;;;;;;6189343;23;20671;-83
2022/12/24 05:36:43;;;;;;;31.00;14.83;;;6.00;99.90;;;;;;6189066;23;20177;-84
2022/12/24 05:39:15;;;;;;;32.60;15.87;;;5.80;99.90;;;;;;6189510;23;20232;-82
2022/12/24 05:41:43;;;;;;;33.50;15.23;;;5.80;99.90;;;;;;6215731;23;20173;-83
2022/12/24 05:44:10;;;;;;;31.90;15.37;;;5.70;99.90;;;;;;6189014;23;20657;-83
2022/12/24 05:46:38;;;;;;;29.17;14.60;;;5.70;99.90;;;;;;6215868;23;20169;-82
2022/12/24 05:49:05;;;;;;;31.80;14.97;;;5.70;99.90;;;;;;6189190;23;20170;-83
2022/12/24 05:51:32;;;;;;;31.47;14.93;;;5.60;99.90;;;;;;6189168;23;20162;-84
2022/12/24 05:53:59;;;;;;;32.27;14.67;;;5.60;99.90;;;;;;6188996;23;20163;-83
2022/12/24 05:56:27;;;;;;;30.83;15.53;;;5.70;99.90;;;;;;6164005;23;20174;-83
2022/12/24 05:58:54;;;;;;;31.73;15.67;;;5.60;99.90;;;;;;6215602;23;20192;-84
2022/12/24 06:01:22;;;;;;;31.47;15.53;;;5.60;99.90;;;;;;6189149;23;20266;-83
2022/12/24 06:03:51;;;;;;;30.70;14.13;;;5.60;99.90;;;;;;6215886;23;20190;-83
2022/12/24 06:06:23;;;;;;;29.53;14.67;;;5.70;99.90;;;;;;6215604;23;20603;-83
2022/12/24 06:08:52;;;;;;;32.10;14.37;;;5.70;99.90;;;;;;6215899;23;20174;-82
2022/12/24 06:11:22;;;;;;;33.10;15.20;;;5.70;99.90;;;;;;6188984;23;20170;-83
2022/12/24 06:13:51;;;;;;;31.63;15.07;;;5.70;99.90;;;;;;6216107;23;20230;-84
2022/12/24 06:16:19;;;;;;;28.40;14.00;;;5.70;99.90;;;;;;6189119;23;20263;-84
2022/12/24 06:18:47;;;;;;;30.07;14.27;;;5.70;99.90;;;;;;6215203;23;20514;-83
2022/12/24 06:21:15;;;;;;;29.97;14.43;;;5.70;99.90;;;;;;6189393;23;20181;-83
2022/12/24 06:23:44;;;;;;;29.90;14.43;;;5.60;99.90;;;;;;6189194;23;20198;-83
2022/12/24 06:26:18;;;;;;;30.73;14.73;;;5.70;99.90;;;;;;6215633;23;20185;-83
2022/12/24 06:28:48;;;;;;;28.63;14.23;;;5.60;99.90;;;;;;6215667;23;20169;-81
2022/12/24 06:31:19;;;;;;;28.13;14.43;;;5.60;99.90;;;;;;6216037;23;20606;-83
2022/12/24 06:33:47;;;;;;;29.07;14.17;;;5.70;99.90;;;;;;6216341;23;20175;-83
2022/12/24 06:36:17;;;;;;;30.33;14.43;;;5.60;99.90;;;;;;6188987;23;20209;-84
2022/12/24 06:38:48;;;;;;;28.10;14.13;;;5.60;99.90;;;;;;6189373;23;20171;-84
2022/12/24 06:41:16;;;;;;;28.23;13.77;;;5.60;99.90;;;;;;6189122;23;20173;-85
2022/12/24 06:43:48;;;;;;;27.57;13.87;;;5.70;99.90;;;;;;6189100;23;20524;-83
2022/12/24 06:46:20;;;;;;;26.50;13.70;;;5.70;99.90;;;;;;6189074;23;20223;-83
2022/12/24 06:48:51;;;;;;;32.47;14.10;;;5.70;99.90;;;;;;6215484;23;20233;-82
2022/12/24 06:51:19;;;;;;;28.00;13.60;;;5.60;99.90;;;;;;6215645;23;20168;-84
2022/12/24 06:53:49;;;;;;;29.60;13.70;;;5.60;99.90;;;;;;6215458;23;20174;-83
2022/12/24 06:56:20;;;;;;;29.00;13.67;;;5.70;99.90;;;;;;6164613;23;20168;-84
2022/12/24 06:58:48;;;;;;;30.17;14.43;;;5.60;99.90;;;;;;6215502;23;20524;-82
2022/12/24 07:01:16;;;;;;;27.53;13.40;;;5.70;99.90;;;;;;6215411;23;20543;-83
2022/12/24 07:03:44;;;;;;;27.97;13.33;;;5.70;99.90;;;;;;6215169;23;20200;-84
2022/12/24 07:06:27;;;;;;;29.63;14.27;;;5.70;99.90;;;;;;6188747;23;20247;-85
2022/12/24 07:08:55;;;;;;;25.83;12.90;;;5.80;99.90;;;;;;6216448;23;20153;-84
2022/12/24 07:11:23;;;;;;;26.40;13.27;;;5.80;99.90;;;;;;6190587;23;20702;-84
2022/12/24 07:13:51;;;;;;;28.10;13.30;;;5.80;99.90;;;;;;6190906;23;20247;-84
2022/12/24 07:16:18;;;;;;;27.47;13.20;;;5.80;99.90;;;;;;6217220;23;20177;-84
2022/12/24 07:18:45;;;;;;;26.90;12.90;;;5.70;99.90;;;;;;6215622;23;20175;-84
2022/12/24 07:21:12;;;;;;;27.73;12.90;;;5.80;99.90;;;;;;6190761;23;20224;-84
2022/12/24 07:23:39;;;;;;;26.70;13.43;;;5.70;99.90;;;;;;6190348;23;20197;-84
2022/12/24 07:26:07;;;;;;;27.13;13.40;;;5.70;99.90;;;;;;6217287;23;20203;-83
2022/12/24 07:28:34;;;;;;;25.17;12.63;;;5.70;99.90;;;;;;6190753;23;20169;-84
2022/12/24 07:31:04;;;;;;;25.53;13.03;;;5.70;99.90;;;;;;6190630;23;20186;-84
2022/12/24 07:33:32;;;;;;;27.07;13.23;;;5.80;99.90;;;;;;6190589;23;20659;-84
2022/12/24 07:36:04;;;;;;;25.17;12.37;;;5.70;99.90;;;;;;6190301;23;20173;-84
2022/12/24 07:38:32;;;;;;;28.03;13.20;;;5.70;99.90;;;;;;6217254;23;20542;-85
2022/12/24 07:41:00;;;;;;;26.80;13.57;;;5.70;99.90;;;;;;6190395;23;20602;-84
2022/12/24 07:43:27;;;;;;;25.80;13.00;;;5.70;99.90;;;;;;6190602;23;20193;-83
2022/12/24 07:45:58;;;;;;;28.67;13.77;;;5.70;99.90;;;;;;6190935;23;20256;-84
2022/12/24 07:48:26;;;;;;;28.10;13.47;;;5.70;99.90;;;;;;6165846;23;20256;-84
2022/12/24 07:50:53;;;;;;;28.63;13.40;;;5.70;99.90;;;;;;6217319;23;20200;-85
2022/12/24 07:53:21;;;;;;;28.47;13.57;;;5.70;99.90;;;;;;6190260;23;20169;-84
2022/12/24 07:55:48;;;;;;;28.63;13.57;;;5.70;99.90;;;;;;6217367;23;20205;-85
2022/12/24 07:58:16;;;;;;;29.53;13.67;;;5.70;99.90;;;;;;6217050;23;20164;-84
2022/12/24 08:00:46;;;;;;;28.70;13.40;;;5.70;99.90;;;;;;6216962;23;20205;-85
2022/12/24 08:03:21;;;;;;;29.47;13.63;;;5.70;99.90;;;;;;6190359;23;20601;-84
2022/12/24 08:05:49;;;;;;;28.33;13.50;;;5.70;99.90;;;;;;6166006;23;20210;-85
2022/12/24 08:08:16;;;;;;;29.00;13.13;;;5.70;99.90;;;;;;6216810;23;20172;-85
2022/12/24 08:10:44;;;;;;;27.97;12.43;;;5.70;99.90;;;;;;6190200;23;20634;-85
2022/12/24 08:13:13;;;;;;;26.67;12.50;;;5.70;99.90;;;;;;6190664;23;20225;-84
2022/12/24 08:15:41;;;;;;;30.13;12.67;;;5.60;99.90;;;;;;6216684;23;20157;-84
2022/12/24 08:18:08;;;;;;;27.73;13.30;;;5.70;99.90;;;;;;6216355;23;20257;-85
2022/12/24 08:20:40;;;;;;;30.80;13.23;;;5.60;99.90;;;;;;6216663;23;20194;-85
2022/12/24 08:23:07;;;;;;;26.20;11.93;;;5.60;99.90;;;;;;6216631;23;20185;-85
2022/12/24 08:25:35;;;;;;;26.07;12.27;;;5.50;99.90;;;;;;6190043;23;20282;-85
2022/12/24 08:28:03;;;;;;;27.00;12.37;;;5.50;99.90;;;;;;6190015;23;20203;-85
2022/12/24 08:30:30;;;;;;;32.43;12.40;;;5.50;99.90;;;;;;6190519;23;20226;-84
2022/12/24 08:32:57;;;;;;;26.00;12.40;;;5.50;99.90;;;;;;6190882;23;20170;-85
2022/12/24 08:35:24;;;;;;;25.80;12.17;;;5.60;99.90;;;;;;6190169;23;20598;-85
2022/12/24 08:37:51;;;;;;;29.50;13.07;;;5.60;99.90;;;;;;6190612;23;20222;-85
2022/12/24 08:40:18;;;;;;;25.63;12.43;;;5.60;99.90;;;;;;6189757;23;20172;-86
2022/12/24 08:42:45;;;;;;;26.93;12.47;;;5.60;99.90;;;;;;6190185;23;20176;-83
2022/12/24 08:45:12;;;;;;;26.07;12.03;;;5.60;99.90;;;;;;6190545;23;20174;-86
2022/12/24 08:47:42;;;;;;;28.27;12.67;;;5.60;99.90;;;;;;6190457;23;20317;-86
2022/12/24 08:50:10;;;;;;;25.87;12.47;;;5.60;99.90;;;;;;6217708;23;20159;-86
2022/12/24 08:52:37;;;;;;;23.67;12.40;;;5.60;99.90;;;;;;6190240;23;20283;-86
2022/12/24 08:55:05;;;;;;;24.63;12.27;;;5.60;99.90;;;;;;6189539;23;20188;-85
2022/12/24 08:57:36;;;;;;;25.33;12.27;;;5.70;99.90;;;;;;6190523;23;20186;-86
2022/12/24 09:00:05;;;;;;;25.53;12.00;;;5.70;99.90;;;;;;6190450;23;20297;-85
2022/12/24 09:02:33;;;;;;;26.40;12.40;;;5.60;99.90;;;;;;6216401;23;20200;-83
2022/12/24 09:05:21;;;;;;;24.77;12.53;;;5.60;99.90;;;;;;6216250;23;20197;-86
2022/12/24 09:07:52;;;;;;;23.43;12.23;;;5.60;99.90;;;;;;6191220;23;20159;-85
2022/12/24 09:10:20;;;;;;;26.00;12.13;;;5.60;99.90;;;;;;6216193;23;20167;-86
2022/12/24 09:12:53;;;;;;;24.87;12.10;;;5.60;99.90;;;;;;6189906;23;20177;-86
2022/12/24 09:15:24;;;;;;;25.83;12.17;;;5.60;99.90;;;;;;6216257;23;20175;-86
2022/12/24 09:17:51;;;;;;;26.83;12.33;;;5.70;99.90;;;;;;6189985;23;20234;-85
2022/12/24 09:20:20;;;;;;;24.90;12.27;;;5.70;99.90;;;;;;6189895;23;20197;-83
2022/12/24 09:22:48;;;;;;;24.70;12.37;;;5.60;99.90;;;;;;6216732;23;20664;-84
2022/12/24 09:25:15;;;;;;;25.60;11.30;;;5.70;99.90;;;;;;6189295;23;20206;-85
2022/12/24 09:27:45;;;;;;;23.53;11.60;;;5.70;99.90;;;;;;6216211;23;20165;-85
2022/12/24 09:30:12;;;;;;;24.23;11.70;;;5.80;99.90;;;;;;6189993;23;20230;-85
2022/12/24 09:32:40;;;;;;;21.57;11.57;;;5.80;99.90;;;;;;6189770;23;20184;-85
2022/12/24 09:35:11;;;;;;;26.47;11.90;;;5.80;99.90;;;;;;6216274;23;20202;-85
2022/12/24 09:37:38;;;;;;;22.20;11.47;;;5.90;99.90;;;;;;6216521;23;20187;-84
2022/12/24 09:40:06;;;;;;;22.47;11.20;;;5.90;99.90;;;;;;6215904;23;20214;-84
2022/12/24 09:42:53;;;;;;;21.37;10.53;;;6.00;99.90;;;;;;6216084;23;20169;-84
2022/12/24 09:45:29;;;;;;;22.10;11.00;;;6.00;99.90;;;;;;6215646;23;20571;-84
2022/12/24 09:48:15;;;;;;;21.33;10.27;;;6.00;99.90;;;;;;6190071;23;20169;-85
2022/12/24 09:51:11;;;;;;;21.57;9.90;;;6.00;99.90;;;;;;6216654;23;20169;-84
2022/12/24 09:53:56;;;;;;;24.23;10.80;;;6.00;99.90;;;;;;6189565;23;20173;-84
2022/12/24 09:56:38;;;;;;;18.77;10.23;;;6.10;99.90;;;;;;6216493;23;20253;-85
2022/12/24 09:59:30;;;;;;;20.83;9.93;;;6.10;99.90;;;;;;6190323;23;20610;-86
2022/12/24 10:01:59;;;;;;;17.97;9.73;;;6.10;99.90;;;;;;6174791;23;20174;-86
2022/12/24 10:04:36;;;;;;;16.80;9.50;;;6.00;99.90;;;;;;6190407;23;20188;-85
2022/12/24 10:07:40;;;;;;;15.87;9.13;;;6.10;99.90;;;;;;6216312;23;20486;-85
2022/12/24 10:10:46;;;;;;;15.93;8.93;;;6.20;99.90;;;;;;6189427;23;20601;-86
2022/12/24 10:13:51;;;;;;;14.10;8.40;;;6.20;99.90;;;;;;6212393;23;20172;-85
2022/12/24 10:16:36;;;;;;;16.33;8.73;;;6.20;99.90;;;;;;6123942;23;20251;-85
2022/12/24 10:19:14;;;;;;;13.50;8.17;;;6.20;99.90;;;;;;6100240;23;20179;-86
2022/12/24 10:22:01;;;;;;;15.70;8.70;;;6.20;99.90;;;;;;6124148;23;20735;-87
2022/12/24 10:24:52;;;;;;;13.83;8.30;;;6.10;99.90;;;;;;6123879;23;20299;-86
2022/12/24 10:27:27;;;;;;;16.17;8.47;;;6.10;99.90;;;;;;6100104;23;20725;-85
2022/12/24 10:30:03;;;;;;;16.67;8.80;;;6.00;99.90;;;;;;6100315;23;20175;-86
2022/12/24 10:32:34;;;;;;;14.70;8.43;;;6.00;99.90;;;;;;6124491;23;20278;-88
2022/12/24 10:35:20;;;;;;;18.77;9.33;;;6.10;99.90;;;;;;6099937;23;20251;-85
2022/12/24 10:37:50;;;;;;;16.00;9.27;;;6.10;99.90;;;;;;6123747;23;20560;-85
2022/12/24 10:40:35;;;;;;;16.73;9.20;;;6.10;99.90;;;;;;6100443;23;20238;-87
2022/12/24 10:43:19;;;;;;;15.07;8.23;;;6.10;99.90;;;;;;6124706;23;20223;-87
2022/12/24 10:46:00;;;;;;;16.27;9.30;;;6.20;99.90;;;;;;6101383;23;20535;-86
2022/12/24 10:48:39;;;;;;;15.30;8.40;;;6.10;99.90;;;;;;6125650;23;20177;-85
2022/12/24 10:51:53;;;;;;;14.73;8.30;;;6.10;99.90;;;;;;6101370;23;20494;-86
2022/12/24 10:54:25;;;;;;;14.70;8.80;;;6.10;99.90;;;;;;6217068;23;20165;-86
2022/12/24 10:57:01;;;;;;;16.37;8.70;;;6.10;99.90;;;;;;6217327;23;20256;-86
2022/12/24 10:59:49;;;;;;;14.60;8.83;;;6.10;99.90;;;;;;6217550;23;20236;-85
2022/12/24 11:02:37;;;;;;;15.67;8.87;;;6.20;99.90;;;;;;6217856;23;20163;-86
2022/12/24 11:05:34;;;;;;;15.60;9.47;;;6.20;99.90;;;;;;6191113;23;20510;-85
2022/12/24 11:08:19;;;;;;;17.83;9.37;;;6.10;99.90;;;;;;6191308;23;20152;-86
2022/12/24 11:11:20;;;;;;;17.23;9.30;;;6.10;99.90;;;;;;6215930;23;20161;-86
2022/12/24 11:13:56;;;;;;;18.17;9.73;;;6.10;99.90;;;;;;6217556;23;20590;-87
2022/12/24 11:16:34;;;;;;;18.47;9.43;;;6.00;99.90;;;;;;6217350;23;20196;-86
2022/12/24 11:19:05;;;;;;;18.63;9.70;;;6.00;99.90;;;;;;6190400;23;20603;-85
2022/12/24 11:21:39;;;;;;;18.07;9.90;;;6.00;99.90;;;;;;6217283;23;20178;-86
2022/12/24 11:24:27;;;;;;;17.07;9.50;;;6.00;99.90;;;;;;6216877;23;20181;-83
2022/12/24 11:27:24;;;;;;;18.60;10.00;;;5.90;99.90;;;;;;6216945;23;20188;-85
2022/12/24 11:29:51;;;;;;;20.23;9.80;;;5.90;99.90;;;;;;6217124;23;20156;-86
2022/12/24 11:32:21;;;;;;;16.63;9.43;;;6.00;99.90;;;;;;6190771;23;20231;-86
2022/12/24 11:34:48;;;;;;;16.60;9.40;;;5.90;99.90;;;;;;6216897;23;20159;-85
2022/12/24 11:37:23;;;;;;;17.63;9.93;;;6.00;99.90;;;;;;6216845;23;20502;-86
2022/12/24 11:39:57;;;;;;;17.60;9.27;;;5.90;99.90;;;;;;6217444;23;20591;-85
2022/12/24 11:42:28;;;;;;;20.00;9.93;;;5.80;99.90;;;;;;6215697;23;20174;-85
2022/12/24 11:44:57;;;;;;;18.63;9.40;;;5.80;99.90;;;;;;6190878;23;20225;-86
2022/12/24 11:47:37;;;;;;;19.17;9.10;;;5.70;99.90;;;;;;6217445;23;20195;-83
2022/12/24 11:50:34;;;;;;;20.83;9.63;;;5.70;99.90;;;;;;6190810;23;20499;-85
2022/12/24 11:53:01;;;;;;;16.53;8.97;;;5.70;99.90;;;;;;6125086;23;20623;-84
2022/12/24 11:55:48;;;;;;;18.33;9.43;;;5.70;99.90;;;;;;6124619;23;20199;-87
2022/12/24 11:58:40;;;;;;;19.37;9.97;;;5.70;99.90;;;;;;6100643;23;20576;-85
2022/12/24 12:01:24;;;;;;;18.10;9.60;;;5.70;99.90;;;;;;6101008;23;20286;-84
2022/12/24 12:03:59;;;;;;;18.43;9.30;;;5.70;99.90;;;;;;6124782;23;20707;-84
2022/12/24 12:06:51;;;;;;;17.53;9.20;;;5.70;99.90;;;;;;6100616;23;20264;-85
2022/12/24 12:09:38;;;;;;;19.87;9.23;;;5.80;99.90;;;;;;6125109;23;20222;-87
2022/12/24 12:12:19;;;;;;;21.80;9.17;;;5.80;99.90;;;;;;6124951;23;20160;-87
2022/12/24 12:14:54;;;;;;;15.97;9.07;;;5.80;99.90;;;;;;6125007;23;20175;-87
2022/12/24 12:17:38;;;;;;;20.20;9.53;;;5.80;99.90;;;;;;6125057;23;20183;-87
2022/12/24 12:20:25;;;;;;;21.80;9.47;;;5.80;99.90;;;;;;6125052;23;20186;-85
2022/12/24 12:23:10;;;;;;;19.77;9.73;;;5.80;99.90;;;;;;6124513;23;20198;-85
2022/12/24 12:25:44;;;;;;;20.23;9.70;;;5.80;99.90;;;;;;6124797;23;20206;-86
2022/12/24 12:28:32;;;;;;;20.90;10.20;;;5.80;99.90;;;;;;6124977;23;20526;-86
2022/12/24 12:31:11;;;;;;;19.77;9.80;;;5.90;99.90;;;;;;6190278;23;20171;-86
2022/12/24 12:33:48;;;;;;;23.57;10.20;;;5.80;99.90;;;;;;6190416;23;20509;-85
2022/12/24 12:36:22;;;;;;;24.13;10.57;;;5.80;99.90;;;;;;6217019;23;20177;-88
2022/12/24 12:38:52;;;;;;;24.17;10.83;;;5.80;99.90;;;;;;6190523;23;20529;-85
2022/12/24 12:41:27;;;;;;;25.53;10.90;;;5.70;99.90;;;;;;6215483;23;20535;-85
2022/12/24 12:44:00;;;;;;;23.80;10.97;;;5.70;99.90;;;;;;6189532;23;20216;-84
2022/12/24 12:47:00;;;;;;;21.10;10.47;;;5.80;99.90;;;;;;6217059;23;20161;-84
2022/12/24 12:49:43;;;;;;;23.33;11.07;;;5.70;99.90;;;;;;6216328;23;20170;-83
2022/12/24 12:52:47;;;;;;;21.93;10.10;;;5.70;99.90;;;;;;6219228;23;20182;-86
2022/12/24 12:55:29;;;;;;;20.33;10.10;;;5.70;99.90;;;;;;6189666;23;20208;-84
2022/12/24 12:58:05;;;;;;;21.80;9.77;;;5.70;99.90;;;;;;6216260;23;20169;-83
2022/12/24 13:00:38;;;;;;;21.63;10.03;;;5.70;99.90;;;;;;6216684;23;20280;-84
2022/12/24 13:03:22;;;;;;;21.43;10.17;;;5.80;99.90;;;;;;6216115;23;20188;-84
2022/12/24 13:06:07;;;;;;;24.20;10.57;;;5.80;99.90;;;;;;6189428;23;20254;-87
2022/12/24 13:09:11;;;;;;;21.63;10.10;;;5.80;99.90;;;;;;6190611;23;20257;-86
2022/12/24 13:12:24;;;;;;;20.60;10.00;;;5.80;99.90;;;;;;6190665;23;20170;-85
2022/12/24 13:15:19;;;;;;;20.77;9.93;;;5.80;99.90;;;;;;6190477;23;20256;-84
2022/12/24 13:17:46;;;;;;;22.00;10.57;;;5.80;99.90;;;;;;6216348;23;20195;-85
2022/12/24 13:20:21;;;;;;;24.70;10.60;;;5.80;99.90;;;;;;6189740;23;20252;-85
2022/12/24 13:23:12;;;;;;;24.03;10.87;;;5.80;99.90;;;;;;6189557;23;20175;-86
2022/12/24 13:25:42;;;;;;;21.70;11.30;;;5.80;99.90;;;;;;6182576;23;20266;-85
2022/12/24 13:28:21;;;;;;;21.00;11.07;;;5.90;99.90;;;;;;6189476;23;20179;-86
2022/12/24 13:30:52;;;;;;;24.37;11.50;;;5.90;99.90;;;;;;6190065;23;20169;-83